createdAt,value
2023-01-15T00:00:15.046Z,42.86
2023-01-15T00:01:15.041Z,41.09
2023-01-15T00:02:15.058Z,40.28
2023-01-15T00:03:15.766Z,41.09
2023-01-15T00:04:15.101Z,43.34
2023-01-15T00:05:15.002Z,43.34
2023-01-15T00:06:14.988Z,41.09
2023-01-15T00:07:14.999Z,40.93
2023-01-15T00:08:15.011Z,41.25
2023-01-15T00:09:14.981Z,41.73
2023-01-15T00:10:14.964Z,44.47
2023-01-15T00:11:15.713Z,41.09
2023-01-15T00:12:14.946Z,42.70
2023-01-15T00:13:14.980Z,41.73
2023-01-15T00:14:14.976Z,41.41
2023-01-15T00:15:14.941Z,40.44
2023-01-15T00:16:15.024Z,41.41
2023-01-15T00:17:14.976Z,40.77
2023-01-15T00:18:15.018Z,41.73
2023-01-15T00:19:14.970Z,42.38
2023-01-15T00:20:14.922Z,41.41
2023-01-15T00:21:14.874Z,40.93
2023-01-15T00:22:14.867Z,43.83
2023-01-15T00:23:14.868Z,41.41
2023-01-15T00:24:14.881Z,40.77
2023-01-15T00:25:14.853Z,40.77
2023-01-15T00:26:14.845Z,42.06
2023-01-15T00:27:14.840Z,48.98
2023-01-15T00:28:14.820Z,41.89
2023-01-15T00:29:14.876Z,42.22
2023-01-15T00:30:14.810Z,41.41
2023-01-15T00:31:14.856Z,40.93
2023-01-15T00:32:14.795Z,41.25
2023-01-15T00:33:14.791Z,42.38
2023-01-15T00:34:14.807Z,44.63
2023-01-15T00:35:14.778Z,41.73
2023-01-15T00:36:14.770Z,43.51
2023-01-15T00:37:14.752Z,42.38
2023-01-15T00:38:14.758Z,41.41
2023-01-15T00:39:14.792Z,41.73
2023-01-15T00:40:14.739Z,40.77
2023-01-15T00:41:14.729Z,40.44
2023-01-15T00:42:14.727Z,40.77
2023-01-15T00:43:14.712Z,40.44
2023-01-15T00:44:14.705Z,40.77
2023-01-15T00:45:14.722Z,41.09
2023-01-15T00:46:14.729Z,41.09
2023-01-15T00:47:14.713Z,40.61
2023-01-15T00:48:14.670Z,40.61
2023-01-15T00:49:14.714Z,40.28
2023-01-15T00:50:14.847Z,41.25
2023-01-15T00:51:14.644Z,41.09
2023-01-15T00:52:14.639Z,41.25
2023-01-15T00:53:14.646Z,42.22
2023-01-15T00:54:14.625Z,40.12
2023-01-15T00:55:14.660Z,40.77
2023-01-15T00:56:14.629Z,41.57
2023-01-15T00:57:14.614Z,41.57
2023-01-15T00:58:14.603Z,44.31
2023-01-15T00:59:14.607Z,44.79
2023-01-15T01:00:14.628Z,42.38
2023-01-15T01:01:14.638Z,45.12
2023-01-15T01:02:14.678Z,45.12
2023-01-15T01:03:14.580Z,44.15
2023-01-15T01:04:14.555Z,42.70
2023-01-15T01:05:14.586Z,42.22
2023-01-15T01:06:15.102Z,41.41
2023-01-15T01:07:14.543Z,41.25
2023-01-15T01:08:14.526Z,41.41
2023-01-15T01:09:14.520Z,42.54
2023-01-15T01:10:14.544Z,41.25
2023-01-15T01:11:14.508Z,41.25
2023-01-15T01:12:14.514Z,42.38
2023-01-15T01:13:14.494Z,40.44
2023-01-15T01:14:14.485Z,41.25
2023-01-15T01:15:14.513Z,41.09
2023-01-15T01:16:14.493Z,41.09
2023-01-15T01:17:14.458Z,41.73
2023-01-15T01:18:14.448Z,42.54
2023-01-15T01:19:14.438Z,41.57
2023-01-15T01:20:14.491Z,41.25
2023-01-15T01:21:14.428Z,42.38
2023-01-15T01:22:14.425Z,42.22
2023-01-15T01:23:14.414Z,43.51
2023-01-15T01:24:14.429Z,43.51
2023-01-15T01:25:14.427Z,44.63
2023-01-15T01:26:14.405Z,43.51
2023-01-15T01:27:14.391Z,43.99
2023-01-15T01:28:14.372Z,44.96
2023-01-15T01:29:14.364Z,42.86
2023-01-15T01:30:14.388Z,42.54
2023-01-15T01:31:14.376Z,41.89
2023-01-15T01:32:14.355Z,41.57
2023-01-15T01:33:14.358Z,42.06
2023-01-15T01:34:14.341Z,43.51
2023-01-15T01:35:14.351Z,41.41
2023-01-15T01:36:14.347Z,40.93
2023-01-15T01:37:14.305Z,41.09
2023-01-15T01:38:14.305Z,41.41
2023-01-15T01:39:14.300Z,40.28
2023-01-15T01:40:14.291Z,41.09
2023-01-15T01:41:14.302Z,41.41
2023-01-15T01:42:14.273Z,42.86
2023-01-15T01:43:14.263Z,41.73
2023-01-15T01:44:14.255Z,42.86
2023-01-15T01:45:14.249Z,43.51
2023-01-15T01:46:14.258Z,46.25
2023-01-15T01:47:14.227Z,47.05
2023-01-15T01:48:14.229Z,47.70
2023-01-15T01:49:14.240Z,47.21
2023-01-15T01:50:14.206Z,47.05
2023-01-15T01:51:14.226Z,46.41
2023-01-15T01:52:14.224Z,45.28
2023-01-15T01:53:14.189Z,45.60
2023-01-15T01:54:14.213Z,44.15
2023-01-15T01:55:14.178Z,43.83
2023-01-15T01:56:14.201Z,43.67
2023-01-15T01:57:14.156Z,43.67
2023-01-15T01:58:14.173Z,42.54
2023-01-15T01:59:14.130Z,44.47
2023-01-15T02:00:14.134Z,43.83
2023-01-15T02:01:14.313Z,42.38
2023-01-15T02:02:14.236Z,42.06
2023-01-15T02:03:14.113Z,42.54
2023-01-15T02:04:14.104Z,42.54
2023-01-15T02:05:14.098Z,44.15
2023-01-15T02:06:14.117Z,42.22
2023-01-15T02:07:14.076Z,41.73
2023-01-15T02:08:14.064Z,42.06
2023-01-15T02:09:14.064Z,42.54
2023-01-15T02:10:14.064Z,44.47
2023-01-15T02:11:14.075Z,43.02
2023-01-15T02:12:14.047Z,43.34
2023-01-15T02:13:14.039Z,44.96
2023-01-15T02:14:14.024Z,42.54
2023-01-15T02:15:14.035Z,41.09
2023-01-15T02:16:14.057Z,41.89
2023-01-15T02:17:14.037Z,42.06
2023-01-15T02:18:13.991Z,42.06
2023-01-15T02:19:14.010Z,41.41
2023-01-15T02:20:13.978Z,40.93
2023-01-15T02:21:13.999Z,41.89
2023-01-15T02:22:13.965Z,42.38
2023-01-15T02:23:13.956Z,40.44
2023-01-15T02:24:13.951Z,41.25
2023-01-15T02:25:13.940Z,41.25
2023-01-15T02:26:13.954Z,40.93
2023-01-15T02:27:13.921Z,41.57
2023-01-15T02:28:13.916Z,42.54
2023-01-15T02:29:13.936Z,42.86
2023-01-15T02:30:13.937Z,41.57
2023-01-15T02:31:13.974Z,41.89
2023-01-15T02:32:13.881Z,42.06
2023-01-15T02:33:13.890Z,41.73
2023-01-15T02:34:13.869Z,42.22
2023-01-15T02:35:13.865Z,42.06
2023-01-15T02:36:13.875Z,42.22
2023-01-15T02:37:13.852Z,42.54
2023-01-15T02:38:13.839Z,42.38
2023-01-15T02:39:13.823Z,41.89
2023-01-15T02:40:13.818Z,42.06
2023-01-15T02:41:13.814Z,41.73
2023-01-15T02:42:13.831Z,41.89
2023-01-15T02:43:13.802Z,42.22
2023-01-15T02:44:13.795Z,42.70
2023-01-15T02:45:13.788Z,42.06
2023-01-15T02:46:13.778Z,42.38
2023-01-15T02:47:13.792Z,41.89
2023-01-15T02:48:13.764Z,42.22
2023-01-15T02:49:13.752Z,41.57
2023-01-15T02:50:13.735Z,42.06
2023-01-15T02:51:13.754Z,42.06
2023-01-15T02:52:13.753Z,43.02
2023-01-15T02:53:13.719Z,42.86
2023-01-15T02:54:13.734Z,42.22
2023-01-15T02:55:13.721Z,42.70
2023-01-15T02:56:13.701Z,41.73
2023-01-15T02:57:13.718Z,41.09
2023-01-15T02:58:13.701Z,42.22
2023-01-15T02:59:13.697Z,41.89
2023-01-15T03:00:13.674Z,41.89
2023-01-15T03:01:13.724Z,40.93
2023-01-15T03:02:13.848Z,41.09
2023-01-15T03:03:13.651Z,41.09
2023-01-15T03:04:13.659Z,41.57
2023-01-15T03:05:13.634Z,40.93
2023-01-15T03:06:13.607Z,40.44
2023-01-15T03:07:13.645Z,40.77
2023-01-15T03:08:13.609Z,40.61
2023-01-15T03:09:13.592Z,40.61
2023-01-15T03:10:13.595Z,40.44
2023-01-15T03:11:13.593Z,40.44
2023-01-15T03:12:13.599Z,40.77
2023-01-15T03:13:13.563Z,40.77
2023-01-15T03:14:13.560Z,40.77
2023-01-15T03:15:13.591Z,42.70
2023-01-15T03:16:13.592Z,39.48
2023-01-15T03:17:13.567Z,40.77
2023-01-15T03:18:13.525Z,40.77
2023-01-15T03:19:14.551Z,39.96
2023-01-15T03:20:13.502Z,40.93
2023-01-15T03:21:13.505Z,39.96
2023-01-15T03:22:13.513Z,41.25
2023-01-15T03:23:13.504Z,41.09
2023-01-15T03:24:13.563Z,39.80
2023-01-15T03:25:13.472Z,40.12
2023-01-15T03:26:13.463Z,39.80
2023-01-15T03:27:13.480Z,39.96
2023-01-15T03:28:14.458Z,44.96
2023-01-15T03:29:13.446Z,40.44
2023-01-15T03:30:13.464Z,40.77
2023-01-15T03:31:13.422Z,40.44
2023-01-15T03:32:13.445Z,41.41
2023-01-15T03:33:13.409Z,40.44
2023-01-15T03:34:13.402Z,41.73
2023-01-15T03:35:13.400Z,56.07
2023-01-15T03:36:13.390Z,55.11
2023-01-15T03:37:13.417Z,55.43
2023-01-15T03:38:13.379Z,55.75
2023-01-15T03:39:13.372Z,55.11
2023-01-15T03:40:13.379Z,55.11
2023-01-15T03:41:13.360Z,55.27
2023-01-15T03:42:13.367Z,55.27
2023-01-15T03:43:13.349Z,55.27
2023-01-15T03:44:13.332Z,55.11
2023-01-15T03:45:13.322Z,54.79
2023-01-15T03:46:13.327Z,54.62
2023-01-15T03:47:13.337Z,54.46
2023-01-15T03:48:13.297Z,54.79
2023-01-15T03:49:13.289Z,54.95
2023-01-15T03:50:13.283Z,55.11
2023-01-15T03:51:13.271Z,54.62
2023-01-15T03:52:13.320Z,40.93
2023-01-15T03:53:13.275Z,38.51
2023-01-15T03:54:13.285Z,38.83
2023-01-15T03:55:13.247Z,40.93
2023-01-15T03:56:13.240Z,40.44
2023-01-15T03:57:13.264Z,41.89
2023-01-15T03:58:13.228Z,43.02
2023-01-15T03:59:13.211Z,43.67
2023-01-15T04:00:13.210Z,41.25
2023-01-15T04:01:13.303Z,44.63
2023-01-15T04:02:13.290Z,43.99
2023-01-15T04:03:13.210Z,43.02
2023-01-15T04:04:13.206Z,41.89
2023-01-15T04:05:13.167Z,43.02
2023-01-15T04:06:13.168Z,42.86
2023-01-15T04:07:13.155Z,45.92
2023-01-15T04:08:13.175Z,42.06
2023-01-15T04:09:13.142Z,41.73
2023-01-15T04:10:13.135Z,41.57
2023-01-15T04:11:13.133Z,41.73
2023-01-15T04:12:13.121Z,41.09
2023-01-15T04:13:13.147Z,41.89
2023-01-15T04:14:13.101Z,41.89
2023-01-15T04:15:13.165Z,43.02
2023-01-15T04:16:13.085Z,42.22
2023-01-15T04:17:13.081Z,41.73
2023-01-15T04:18:13.096Z,41.09
2023-01-15T04:19:13.071Z,45.12
2023-01-15T04:20:13.075Z,43.51
2023-01-15T04:21:13.038Z,41.73
2023-01-15T04:22:13.053Z,43.02
2023-01-15T04:23:13.056Z,42.54
2023-01-15T04:24:13.019Z,41.73
2023-01-15T04:25:13.011Z,40.93
2023-01-15T04:26:13.017Z,41.09
2023-01-15T04:27:13.006Z,41.73
2023-01-15T04:28:13.025Z,41.09
2023-01-15T04:29:12.992Z,41.73
2023-01-15T04:30:12.997Z,41.73
2023-01-15T04:31:12.992Z,41.57
2023-01-15T04:32:12.954Z,42.22
2023-01-15T04:33:12.985Z,41.25
2023-01-15T04:34:12.944Z,41.57
2023-01-15T04:35:12.941Z,39.96
2023-01-15T04:36:12.926Z,41.73
2023-01-15T04:37:12.922Z,42.06
2023-01-15T04:38:12.947Z,41.57
2023-01-15T04:39:12.906Z,40.44
2023-01-15T04:40:12.905Z,40.77
2023-01-15T04:41:12.898Z,41.57
2023-01-15T04:42:12.885Z,42.70
2023-01-15T04:43:12.912Z,42.22
2023-01-15T04:44:12.863Z,41.73
2023-01-15T04:45:12.862Z,40.93
2023-01-15T04:46:12.890Z,41.09
2023-01-15T04:47:12.840Z,41.57
2023-01-15T04:48:12.871Z,41.25
2023-01-15T04:49:12.832Z,41.89
2023-01-15T04:50:12.824Z,39.80
2023-01-15T04:51:12.804Z,40.77
2023-01-15T04:52:12.797Z,40.93
2023-01-15T04:53:12.801Z,43.99
2023-01-15T04:54:12.815Z,40.12
2023-01-15T04:55:12.775Z,40.12
2023-01-15T04:56:12.768Z,40.28
2023-01-15T04:57:12.764Z,40.77
2023-01-15T04:58:12.749Z,43.67
2023-01-15T04:59:12.775Z,41.41
2023-01-15T05:00:12.736Z,41.25
2023-01-15T05:01:12.853Z,41.09
2023-01-15T05:02:15.121Z,40.77
2023-01-15T05:03:12.724Z,40.77
2023-01-15T05:04:12.771Z,41.57
2023-01-15T05:05:12.713Z,40.77
2023-01-15T05:06:12.703Z,41.57
2023-01-15T05:07:12.702Z,40.44
2023-01-15T05:08:12.683Z,39.96
2023-01-15T05:09:12.706Z,40.93
2023-01-15T05:10:12.670Z,43.02
2023-01-15T05:11:12.656Z,44.31
2023-01-15T05:12:12.656Z,41.89
2023-01-15T05:13:12.664Z,40.93
2023-01-15T05:14:12.659Z,40.93
2023-01-15T05:15:12.628Z,41.89
2023-01-15T05:16:12.706Z,40.61
2023-01-15T05:17:12.611Z,41.25
2023-01-15T05:18:12.601Z,40.93
2023-01-15T05:19:12.957Z,40.77
2023-01-15T05:20:12.599Z,41.25
2023-01-15T05:21:12.578Z,40.77
2023-01-15T05:22:12.578Z,41.09
2023-01-15T05:23:12.573Z,40.61
2023-01-15T05:24:12.591Z,40.93
2023-01-15T05:25:12.560Z,41.57
2023-01-15T05:26:12.548Z,40.44
2023-01-15T05:27:12.545Z,40.61
2023-01-15T05:28:12.536Z,40.93
2023-01-15T05:29:12.573Z,40.61
2023-01-15T05:30:12.531Z,40.93
2023-01-15T05:31:12.533Z,40.77
2023-01-15T05:32:12.503Z,40.28
2023-01-15T05:33:12.503Z,40.93
2023-01-15T05:34:12.521Z,40.12
2023-01-15T05:35:12.483Z,40.28
2023-01-15T05:36:12.475Z,41.09
2023-01-15T05:37:12.469Z,40.77
2023-01-15T05:38:12.462Z,41.09
2023-01-15T05:39:12.481Z,40.28
2023-01-15T05:40:12.444Z,40.77
2023-01-15T05:41:12.447Z,40.28
2023-01-15T05:42:12.436Z,41.89
2023-01-15T05:43:12.424Z,41.89
2023-01-15T05:44:12.444Z,41.09
2023-01-15T05:45:12.414Z,40.61
2023-01-15T05:46:12.458Z,40.44
2023-01-15T05:47:12.413Z,40.28
2023-01-15T05:48:12.385Z,41.09
2023-01-15T05:49:12.418Z,41.25
2023-01-15T05:50:12.374Z,41.09
2023-01-15T05:51:12.369Z,40.44
2023-01-15T05:52:12.354Z,41.09
2023-01-15T05:53:12.349Z,41.73
2023-01-15T05:54:12.367Z,40.28
2023-01-15T05:55:12.336Z,40.93
2023-01-15T05:56:12.333Z,40.44
2023-01-15T05:57:12.319Z,40.77
2023-01-15T05:58:12.320Z,42.86
2023-01-15T05:59:12.334Z,41.41
2023-01-15T06:00:12.311Z,40.61
2023-01-15T06:01:12.326Z,41.25
2023-01-15T06:02:12.296Z,42.54
2023-01-15T06:03:12.278Z,41.41
2023-01-15T06:04:12.629Z,40.77
2023-01-15T06:05:12.267Z,40.77
2023-01-15T06:06:12.249Z,40.61
2023-01-15T06:07:12.242Z,40.77
2023-01-15T06:08:12.231Z,40.28
2023-01-15T06:09:12.262Z,40.12
2023-01-15T06:10:12.222Z,40.12
2023-01-15T06:11:12.208Z,39.96
2023-01-15T06:12:12.209Z,42.06
2023-01-15T06:13:12.188Z,40.61
2023-01-15T06:14:13.217Z,40.28
2023-01-15T06:15:12.182Z,40.93
2023-01-15T06:16:12.227Z,41.09
2023-01-15T06:17:12.177Z,44.79
2023-01-15T06:18:12.167Z,41.57
2023-01-15T06:19:12.187Z,41.73
2023-01-15T06:20:12.189Z,41.57
2023-01-15T06:21:12.174Z,40.77
2023-01-15T06:22:12.165Z,41.41
2023-01-15T06:23:12.124Z,40.44
2023-01-15T06:24:12.147Z,41.57
2023-01-15T06:25:12.112Z,40.77
2023-01-15T06:26:12.108Z,40.28
2023-01-15T06:27:12.095Z,40.61
2023-01-15T06:28:12.087Z,41.89
2023-01-15T06:29:12.079Z,39.80
2023-01-15T06:30:12.099Z,40.93
2023-01-15T06:31:12.100Z,46.08
2023-01-15T06:32:12.062Z,40.77
2023-01-15T06:33:12.055Z,40.28
2023-01-15T06:34:12.049Z,40.12
2023-01-15T06:35:12.062Z,40.61
2023-01-15T06:36:12.032Z,40.12
2023-01-15T06:37:12.025Z,40.12
2023-01-15T06:38:12.014Z,40.44
2023-01-15T06:39:12.018Z,40.44
2023-01-15T06:40:12.033Z,39.96
2023-01-15T06:41:11.991Z,40.93
2023-01-15T06:42:11.988Z,40.44
2023-01-15T06:43:11.985Z,40.61
2023-01-15T06:44:11.965Z,41.25
2023-01-15T06:45:12.004Z,42.06
2023-01-15T06:46:12.036Z,40.28
2023-01-15T06:47:11.948Z,40.44
2023-01-15T06:48:11.937Z,41.89
2023-01-15T06:49:11.935Z,41.09
2023-01-15T06:50:11.955Z,40.93
2023-01-15T06:51:11.916Z,39.96
2023-01-15T06:52:12.037Z,40.77
2023-01-15T06:53:11.904Z,40.93
2023-01-15T06:54:11.898Z,40.44
2023-01-15T06:55:11.917Z,43.02
2023-01-15T06:56:11.877Z,40.28
2023-01-15T06:57:11.896Z,40.44
2023-01-15T06:58:11.866Z,41.09
2023-01-15T06:59:12.629Z,41.57
2023-01-15T07:00:12.873Z,39.80
2023-01-15T07:01:11.907Z,40.61
2023-01-15T07:02:11.850Z,42.06
2023-01-15T07:03:11.831Z,40.12
2023-01-15T07:04:11.850Z,39.80
2023-01-15T07:05:11.834Z,43.51
2023-01-15T07:06:11.820Z,40.44
2023-01-15T07:07:11.802Z,39.96
2023-01-15T07:08:11.784Z,40.77
2023-01-15T07:09:11.788Z,40.77
2023-01-15T07:10:11.807Z,41.89
2023-01-15T07:11:11.770Z,41.09
2023-01-15T07:12:11.760Z,39.80
2023-01-15T07:13:11.761Z,41.25
2023-01-15T07:14:11.746Z,40.77
2023-01-15T07:15:11.769Z,47.21
2023-01-15T07:16:11.751Z,56.56
2023-01-15T07:17:11.726Z,58.65
2023-01-15T07:18:11.721Z,58.97
2023-01-15T07:19:11.713Z,58.01
2023-01-15T07:20:11.731Z,57.36
2023-01-15T07:21:11.703Z,57.04
2023-01-15T07:22:11.703Z,57.85
2023-01-15T07:23:11.684Z,57.20
2023-01-15T07:24:11.683Z,57.85
2023-01-15T07:25:11.701Z,56.88
2023-01-15T07:26:11.660Z,57.69
2023-01-15T07:27:11.649Z,57.85
2023-01-15T07:28:11.649Z,57.69
2023-01-15T07:29:11.639Z,57.20
2023-01-15T07:30:11.636Z,57.52
2023-01-15T07:31:11.673Z,57.69
2023-01-15T07:32:11.653Z,56.07
2023-01-15T07:33:11.613Z,56.07
2023-01-15T07:34:11.612Z,56.72
2023-01-15T07:35:11.595Z,56.40
2023-01-15T07:36:11.621Z,56.56
2023-01-15T07:37:11.619Z,56.72
2023-01-15T07:38:11.584Z,56.88
2023-01-15T07:39:11.569Z,56.24
2023-01-15T07:40:11.567Z,56.72
2023-01-15T07:41:11.579Z,55.91
2023-01-15T07:42:11.550Z,56.24
2023-01-15T07:43:11.540Z,56.24
2023-01-15T07:44:11.536Z,56.56
2023-01-15T07:45:11.529Z,56.40
2023-01-15T07:46:11.542Z,56.07
2023-01-15T07:47:11.503Z,54.95
2023-01-15T07:48:11.496Z,55.43
2023-01-15T07:49:11.477Z,55.59
2023-01-15T07:50:12.484Z,55.59
2023-01-15T07:51:11.500Z,55.11
2023-01-15T07:52:11.470Z,56.07
2023-01-15T07:53:11.464Z,56.24
2023-01-15T07:54:11.479Z,56.24
2023-01-15T07:55:11.447Z,56.40
2023-01-15T07:56:11.445Z,56.72
2023-01-15T07:57:11.444Z,56.88
2023-01-15T07:58:11.424Z,57.04
2023-01-15T07:59:11.439Z,57.52
2023-01-15T08:00:11.405Z,58.17
2023-01-15T08:01:11.637Z,55.75
2023-01-15T08:02:11.401Z,57.04
2023-01-15T08:03:11.390Z,57.20
2023-01-15T08:04:11.439Z,57.20
2023-01-15T08:05:11.373Z,56.88
2023-01-15T08:06:11.360Z,57.52
2023-01-15T08:07:11.351Z,57.52
2023-01-15T08:08:11.348Z,55.91
2023-01-15T08:09:11.364Z,54.46
2023-01-15T08:10:11.333Z,54.46
2023-01-15T08:11:11.317Z,54.46
2023-01-15T08:12:11.318Z,54.30
2023-01-15T08:13:11.309Z,54.46
2023-01-15T08:14:11.321Z,54.30
2023-01-15T08:15:11.291Z,39.64
2023-01-15T08:16:11.346Z,38.35
2023-01-15T08:17:11.277Z,38.67
2023-01-15T08:18:11.278Z,41.25
2023-01-15T08:19:11.283Z,41.57
2023-01-15T08:20:11.250Z,42.86
2023-01-15T08:21:11.241Z,40.93
2023-01-15T08:22:11.238Z,43.51
2023-01-15T08:23:11.230Z,41.89
2023-01-15T08:24:11.252Z,46.57
2023-01-15T08:25:11.213Z,40.77
2023-01-15T08:26:11.213Z,43.99
2023-01-15T08:27:11.194Z,43.18
2023-01-15T08:28:11.189Z,41.09
2023-01-15T08:29:11.212Z,41.09
2023-01-15T08:30:11.187Z,40.77
2023-01-15T08:31:11.178Z,40.61
2023-01-15T08:32:11.157Z,44.47
2023-01-15T08:33:11.158Z,43.18
2023-01-15T08:34:11.147Z,42.54
2023-01-15T08:35:11.174Z,43.18
2023-01-15T08:36:11.127Z,45.44
2023-01-15T08:37:11.120Z,45.44
2023-01-15T08:38:11.109Z,44.63
2023-01-15T08:39:11.106Z,42.54
2023-01-15T08:40:11.133Z,44.47
2023-01-15T08:41:11.085Z,44.63
2023-01-15T08:42:11.080Z,41.41
2023-01-15T08:43:11.075Z,41.89
2023-01-15T08:44:11.076Z,41.25
2023-01-15T08:45:11.101Z,45.12
2023-01-15T08:46:11.189Z,44.63
2023-01-15T08:47:11.049Z,44.47
2023-01-15T08:48:12.040Z,46.41
2023-01-15T08:49:11.056Z,42.54
2023-01-15T08:50:11.085Z,45.12
2023-01-15T08:51:11.013Z,43.02
2023-01-15T08:52:11.023Z,43.67
2023-01-15T08:53:11.003Z,43.67
2023-01-15T08:54:11.007Z,42.70
2023-01-15T08:55:11.020Z,41.73
2023-01-15T08:56:10.981Z,42.54
2023-01-15T08:57:10.972Z,42.06
2023-01-15T08:58:10.961Z,44.63
2023-01-15T08:59:10.974Z,42.70
2023-01-15T09:00:11.000Z,41.25
2023-01-15T09:01:11.043Z,45.12
2023-01-15T09:02:10.982Z,43.51
2023-01-15T09:03:10.941Z,41.73
2023-01-15T09:04:10.919Z,46.57
2023-01-15T09:05:10.939Z,45.60
2023-01-15T09:06:10.915Z,43.51
2023-01-15T09:07:10.930Z,45.44
2023-01-15T09:08:10.889Z,46.89
2023-01-15T09:09:10.892Z,42.06
2023-01-15T09:10:10.899Z,44.63
2023-01-15T09:11:10.861Z,46.57
2023-01-15T09:12:10.865Z,42.54
2023-01-15T09:13:10.860Z,45.44
2023-01-15T09:14:55.975Z,44.47
2023-01-15T09:15:11.861Z,41.25
2023-01-15T09:16:10.828Z,41.89
2023-01-15T09:17:10.819Z,44.79
2023-01-15T09:18:10.830Z,42.38
2023-01-15T09:19:10.809Z,42.86
2023-01-15T09:20:10.821Z,44.15
2023-01-15T09:21:10.797Z,45.12
2023-01-15T09:22:10.792Z,42.38
2023-01-15T09:23:10.783Z,43.18
2023-01-15T09:24:10.768Z,45.60
2023-01-15T09:25:10.829Z,46.08
2023-01-15T09:26:10.757Z,45.76
2023-01-15T09:27:10.744Z,46.41
2023-01-15T09:28:10.745Z,45.60
2023-01-15T09:29:10.790Z,44.79
2023-01-15T09:30:10.750Z,46.08
2023-01-15T09:31:10.727Z,43.34
2023-01-15T09:32:10.715Z,44.15
2023-01-15T09:33:10.714Z,46.57
2023-01-15T09:34:10.728Z,42.86
2023-01-15T09:35:10.713Z,44.96
2023-01-15T09:36:10.674Z,42.54
2023-01-15T09:37:10.681Z,44.15
2023-01-15T09:38:10.669Z,43.83
2023-01-15T09:39:10.663Z,43.51
2023-01-15T09:40:10.674Z,42.70
2023-01-15T09:41:10.644Z,42.06
2023-01-15T09:42:10.701Z,42.54
2023-01-15T09:43:10.649Z,42.54
2023-01-15T09:44:10.623Z,44.63
2023-01-15T09:45:10.643Z,43.34
2023-01-15T09:46:10.648Z,44.15
2023-01-15T09:47:10.592Z,45.44
2023-01-15T09:48:10.592Z,43.51
2023-01-15T09:49:10.597Z,45.12
2023-01-15T09:50:10.624Z,45.60
2023-01-15T09:51:10.598Z,45.28
2023-01-15T09:52:10.563Z,46.73
2023-01-15T09:53:10.555Z,44.79
2023-01-15T09:54:10.552Z,45.12
2023-01-15T09:55:10.593Z,43.51
2023-01-15T09:56:10.536Z,43.18
2023-01-15T09:57:10.520Z,45.44
2023-01-15T09:58:10.516Z,45.60
2023-01-15T09:59:10.510Z,44.96
2023-01-15T10:00:10.562Z,44.79
2023-01-15T10:01:10.577Z,45.44
2023-01-15T10:02:10.498Z,46.57
2023-01-15T10:03:10.490Z,43.18
2023-01-15T10:04:10.490Z,42.38
2023-01-15T10:05:10.458Z,43.67
2023-01-15T10:06:10.482Z,47.21
2023-01-15T10:07:10.444Z,45.44
2023-01-15T10:08:10.443Z,45.44
2023-01-15T10:09:10.457Z,46.57
2023-01-15T10:10:10.417Z,46.41
2023-01-15T10:11:10.439Z,43.67
2023-01-15T10:12:10.402Z,43.02
2023-01-15T10:13:10.401Z,46.57
2023-01-15T10:14:10.388Z,42.70
2023-01-15T10:15:10.383Z,44.63
2023-01-15T10:16:10.436Z,43.67
2023-01-15T10:17:10.373Z,43.51
2023-01-15T10:18:10.360Z,43.67
2023-01-15T10:19:10.354Z,50.60
2023-01-15T10:20:10.347Z,43.34
2023-01-15T10:21:10.373Z,42.86
2023-01-15T10:22:10.329Z,43.34
2023-01-15T10:23:10.318Z,43.51
2023-01-15T10:24:10.584Z,46.08
2023-01-15T10:25:10.304Z,44.15
2023-01-15T10:26:10.329Z,48.82
2023-01-15T10:27:10.303Z,47.37
2023-01-15T10:28:10.291Z,43.34
2023-01-15T10:29:10.274Z,44.47
2023-01-15T10:30:10.348Z,46.25
2023-01-15T10:31:10.312Z,42.22
2023-01-15T10:32:10.257Z,45.92
2023-01-15T10:33:10.249Z,43.67
2023-01-15T10:34:10.247Z,42.54
2023-01-15T10:35:10.238Z,45.92
2023-01-15T10:36:10.263Z,44.15
2023-01-15T10:37:10.218Z,46.73
2023-01-15T10:38:10.208Z,44.63
2023-01-15T10:39:42.727Z,41.73
2023-01-15T10:40:10.200Z,47.37
2023-01-15T10:41:10.215Z,48.34
2023-01-15T10:42:10.192Z,43.51
2023-01-15T10:43:10.193Z,41.25
2023-01-15T10:44:11.166Z,47.53
2023-01-15T10:45:10.237Z,43.83
2023-01-15T10:46:10.298Z,46.08
2023-01-15T10:47:10.148Z,49.63
2023-01-15T10:48:10.123Z,50.76
2023-01-15T10:49:11.124Z,47.37
2023-01-15T10:50:10.199Z,48.02
2023-01-15T10:51:10.213Z,48.18
2023-01-15T10:52:10.114Z,43.99
2023-01-15T10:53:10.098Z,45.60
2023-01-15T10:54:10.087Z,47.86
2023-01-15T10:55:10.090Z,44.63
2023-01-15T10:56:10.145Z,43.18
2023-01-15T10:57:10.077Z,47.53
2023-01-15T10:58:11.070Z,47.05
2023-01-15T10:59:11.057Z,47.70
2023-01-15T11:00:10.137Z,43.83
2023-01-15T11:01:10.164Z,42.86
2023-01-15T11:02:10.210Z,47.21
2023-01-15T11:03:10.070Z,46.08
2023-01-15T11:04:10.113Z,43.99
2023-01-15T11:05:10.016Z,50.11
2023-01-15T11:06:10.233Z,46.57
2023-01-15T11:07:10.026Z,48.34
2023-01-15T11:08:45.228Z,46.41
2023-01-15T11:09:12.436Z,43.34
2023-01-15T11:10:11.230Z,45.12
2023-01-15T11:11:10.250Z,42.70
2023-01-15T11:12:09.968Z,44.63
2023-01-15T11:13:09.949Z,47.70
2023-01-15T11:14:10.952Z,44.31
2023-01-15T11:15:09.979Z,45.60
2023-01-15T11:16:10.000Z,45.12
2023-01-15T11:17:09.920Z,43.99
2023-01-15T11:18:09.926Z,43.99
2023-01-15T11:19:09.911Z,44.47
2023-01-15T11:20:09.892Z,42.54
2023-01-15T11:21:09.885Z,42.22
2023-01-15T11:22:09.911Z,44.63
2023-01-15T11:23:09.871Z,48.34
2023-01-15T11:24:09.876Z,48.66
2023-01-15T11:25:09.866Z,44.96
2023-01-15T11:26:09.864Z,43.83
2023-01-15T11:27:09.865Z,44.63
2023-01-15T11:28:09.841Z,44.63
2023-01-15T11:29:09.850Z,45.28
2023-01-15T11:30:09.831Z,44.15
2023-01-15T11:31:09.976Z,47.70
2023-01-15T11:32:09.857Z,42.70
2023-01-15T11:33:09.794Z,45.60
2023-01-15T11:34:09.793Z,41.89
2023-01-15T11:35:09.772Z,44.63
2023-01-15T11:36:09.768Z,47.05
2023-01-15T11:37:09.792Z,41.73
2023-01-15T11:38:09.766Z,45.28
2023-01-15T11:39:09.752Z,45.44
2023-01-15T11:40:09.750Z,43.02
2023-01-15T11:41:09.731Z,46.73
2023-01-15T11:42:09.743Z,43.83
2023-01-15T11:43:09.762Z,43.18
2023-01-15T11:44:09.732Z,44.96
2023-01-15T11:45:09.707Z,44.63
2023-01-15T11:46:09.773Z,44.63
2023-01-15T11:47:09.715Z,41.89
2023-01-15T11:48:09.703Z,46.08
2023-01-15T11:49:09.672Z,46.25
2023-01-15T11:50:09.672Z,47.53
2023-01-15T11:51:09.653Z,45.28
2023-01-15T11:52:09.680Z,45.60
2023-01-15T11:53:09.638Z,43.83
2023-01-15T11:54:09.635Z,43.18
2023-01-15T11:55:09.624Z,45.76
2023-01-15T11:56:09.630Z,44.96
2023-01-15T11:57:09.652Z,45.28
2023-01-15T11:58:09.599Z,46.57
2023-01-15T11:59:09.595Z,43.02
2023-01-15T12:00:09.583Z,42.86
2023-01-15T12:01:09.607Z,44.31
2023-01-15T12:02:09.610Z,45.12
2023-01-15T12:03:09.564Z,44.63
2023-01-15T12:04:09.633Z,42.54
2023-01-15T12:05:09.555Z,46.08
2023-01-15T12:06:09.558Z,47.70
2023-01-15T12:07:09.586Z,49.15
2023-01-15T12:08:09.533Z,44.31
2023-01-15T12:09:09.522Z,42.70
2023-01-15T12:10:09.522Z,43.34
2023-01-15T12:11:25.565Z,44.47
2023-01-15T12:12:11.530Z,48.66
2023-01-15T12:13:09.505Z,44.79
2023-01-15T12:14:09.503Z,45.60
2023-01-15T12:15:09.484Z,43.67
2023-01-15T12:16:09.511Z,46.73
2023-01-15T12:17:09.530Z,46.57
2023-01-15T12:18:09.464Z,47.86
2023-01-15T12:19:09.456Z,45.76
2023-01-15T12:20:09.455Z,43.51
2023-01-15T12:21:09.441Z,45.60
2023-01-15T12:22:09.456Z,43.34
2023-01-15T12:23:09.419Z,45.12
2023-01-15T12:24:09.424Z,44.96
2023-01-15T12:25:09.406Z,44.63
2023-01-15T12:26:09.402Z,47.05
2023-01-15T12:27:09.435Z,46.41
2023-01-15T12:28:09.393Z,44.15
2023-01-15T12:29:09.377Z,43.99
2023-01-15T12:30:09.381Z,44.63
2023-01-15T12:31:09.390Z,44.79
2023-01-15T12:32:09.382Z,46.73
2023-01-15T12:33:09.352Z,45.12
2023-01-15T12:34:09.334Z,45.12
2023-01-15T12:35:09.345Z,42.38
2023-01-15T12:36:09.342Z,43.99
2023-01-15T12:37:09.316Z,45.12
2023-01-15T12:38:10.581Z,46.73
2023-01-15T12:39:09.307Z,49.47
2023-01-15T12:40:09.295Z,45.44
2023-01-15T12:41:09.289Z,44.79
2023-01-15T12:42:09.289Z,45.12
2023-01-15T12:43:09.290Z,49.47
2023-01-15T12:44:09.261Z,46.57
2023-01-15T12:45:09.276Z,46.73
2023-01-15T12:46:09.244Z,44.96
2023-01-15T12:47:09.238Z,43.67
2023-01-15T12:48:09.260Z,47.37
2023-01-15T12:49:09.242Z,43.67
2023-01-15T12:50:09.221Z,44.31
2023-01-15T12:51:09.239Z,45.44
2023-01-15T12:52:09.203Z,45.12